Terminal Aerodrome Forecast
Issued by NWS

Home | Current Version | Previous Version | Text Only | Print | Product List | Glossary On
Versions: 1 2 3 4 5 6 7 8 9 10 11 12 13 14
053
FTUS43 KJKL 171730
TAFSJS
TAF
KSJS 171730Z 1718/1818 VRB05KT P6SM VCSH OVC060
     FM180000 VRB03KT P6SM OVC025
     FM180600 VRB04KT P6SM -DZ OVC020
     FM181200 VRB05KT P6SM -DZ OVC008=

USA.gov is the U.S. government's official web portal to all federal, state and local government web resources and services.